Time;durP1;ratioP1;P1;durP2;ratioP2;P2;SDS_P1;SDS_P2;PMS_P1;PMS_P2;Temp;Humidity;BMP_temperature;BMP_pressure;BME280_temperature;BME280_humidity;BME280_pressure;Samples;Min_cycle;Max_cycle;Signal;HPM_P1;HPM_P2
2023/08/20 00:02:32;;;;;;;;;37.50;33.25;;;;;24.58;48.95;99477.38;5059587;28;8864;-77
2023/08/20 00:05:03;;;;;;;;;36.75;32.25;;;;;24.62;48.95;99474.31;5113183;28;8856;-78
2023/08/20 00:07:33;;;;;;;;;38.00;35.00;;;;;24.61;48.72;99474.44;5112245;28;8847;-78
2023/08/20 00:10:04;;;;;;;;;37.75;34.75;;;;;24.58;48.75;99469.31;5026081;28;8859;-80
2023/08/20 00:12:33;;;;;;;;;35.75;33.00;;;;;24.50;49.29;99467.25;5097016;28;8842;-78
2023/08/20 00:15:05;;;;;;;;;36.75;33.75;;;;;24.47;49.41;99473.72;5095402;28;8870;-77
2023/08/20 00:17:36;;;;;;;;;41.25;34.75;;;;;24.40;49.71;99469.81;5096847;28;8870;-78
2023/08/20 00:20:10;;;;;;;;;38.00;32.25;;;;;24.37;49.42;99470.06;5097021;28;8857;-79
2023/08/20 00:22:40;;;;;;;;;38.50;33.00;;;;;24.32;49.51;99462.38;5093293;28;8846;-78
2023/08/20 00:25:10;;;;;;;;;36.50;32.75;;;;;24.33;49.08;99469.44;5093181;28;8858;-79
2023/08/20 00:27:39;;;;;;;;;32.50;31.25;;;;;24.33;49.08;99463.22;5091985;28;8848;-80
2023/08/20 00:30:11;;;;;;;;;33.75;31.50;;;;;24.26;49.80;99470.06;5073294;28;8861;-81
2023/08/20 00:32:40;;;;;;;;;39.75;35.50;;;;;24.20;49.88;99475.91;5090711;28;8830;-79
2023/08/20 00:35:10;;;;;;;;;34.50;32.50;;;;;24.30;49.70;99471.50;5072778;28;8895;-81
2023/08/20 00:37:39;;;;;;;;;42.50;36.00;;;;;24.27;49.29;99471.78;5072849;28;8846;-78
2023/08/20 00:40:10;;;;;;;;;34.25;32.25;;;;;24.28;49.15;99466.28;5080097;28;8828;-79
2023/08/20 00:42:39;;;;;;;;;35.75;33.00;;;;;24.37;48.88;99470.06;5092850;28;8835;-80
2023/08/20 00:45:11;;;;;;;;;36.00;32.75;;;;;24.39;49.35;99475.31;5092866;28;8855;-78
2023/08/20 00:47:41;;;;;;;;;38.25;34.50;;;;;24.35;49.23;99466.63;5092519;28;8908;-77
2023/08/20 00:50:11;;;;;;;;;34.75;32.00;;;;;24.38;49.21;99470.91;5092373;28;8962;-78
2023/08/20 00:52:41;;;;;;;;;41.25;35.75;;;;;24.41;49.33;99468.81;5092864;28;8827;-78
2023/08/20 00:55:10;;;;;;;;;37.25;33.25;;;;;24.46;49.04;99466.63;5093963;28;8861;-79
2023/08/20 00:57:40;;;;;;;;;35.50;32.75;;;;;24.44;49.15;99465.06;5089540;28;8861;-78
2023/08/20 01:00:11;;;;;;;;;38.50;33.75;;;;;24.50;49.37;99460.03;5091336;28;8950;-78
2023/08/20 01:02:41;;;;;;;;;35.00;32.00;;;;;24.45;49.69;99467.63;5088974;28;8884;-78
2023/08/20 01:05:14;;;;;;;;;38.50;33.50;;;;;24.35;49.93;99466.63;5022642;28;8882;-76
2023/08/20 01:08:06;;;;;;;;;35.50;32.00;;;;;24.54;49.48;99463.31;5089202;28;8829;-79
2023/08/20 01:10:43;;;;;;;;;39.75;35.50;;;;;24.57;49.40;99464.94;4988226;28;8849;-77
2023/08/20 01:13:12;;;;;;;;;42.25;37.00;;;;;24.49;49.76;99466.41;4988054;28;8865;-78
2023/08/20 01:15:42;;;;;;;;;44.00;36.75;;;;;24.40;50.53;99472.50;4988498;28;9645;-78
2023/08/20 01:18:12;;;;;;;;;43.75;37.75;;;;;24.40;50.23;99471.66;5006019;28;8867;-77
2023/08/20 01:20:46;;;;;;;;;43.75;37.25;;;;;24.40;50.43;99471.66;4966242;28;8867;-78
2023/08/20 01:23:54;;;;;;;;;39.00;34.75;;;;;24.57;50.15;99468.47;4992768;28;8982;-78
2023/08/20 01:26:55;;;;;;;;;42.75;36.00;;;;;24.52;49.98;99474.19;4992027;28;8843;-76
2023/08/20 01:29:26;;;;;;;;;44.00;37.50;;;;;24.37;50.96;99471.91;4910045;29;8972;-78
2023/08/20 01:31:55;;;;;;;;;36.50;32.75;;;;;24.37;50.80;99479.94;4929924;29;8963;-81
2023/08/20 01:34:25;;;;;;;;;39.75;35.50;;;;;24.35;51.03;99475.53;4929894;29;8970;-78
2023/08/20 01:36:54;;;;;;;;;38.50;34.75;;;;;24.21;51.91;99472.28;4898108;29;8927;-77
2023/08/20 01:39:24;;;;;;;;;39.50;35.25;;;;;24.21;51.30;99483.00;4929498;29;8904;-77
2023/08/20 01:41:53;;;;;;;;;41.50;35.50;;;;;24.24;51.95;99490.81;4929454;29;8865;-79
2023/08/20 01:44:22;;;;;;;;;43.25;37.25;;;;;24.21;51.60;99489.22;4898270;29;8893;-78
2023/08/20 01:46:52;;;;;;;;;36.75;33.25;;;;;24.23;52.12;99489.13;4933844;28;8866;-78
2023/08/20 01:49:22;;;;;;;;;41.25;35.25;;;;;24.20;52.30;99489.34;5005221;28;8975;-78
2023/08/20 01:51:50;;;;;;;;;38.25;33.00;;;;;24.18;51.99;99492.16;4955072;28;8870;-77
2023/08/20 01:54:19;;;;;;;;;47.75;38.50;;;;;24.18;52.25;99485.94;4989786;28;8854;-78
2023/08/20 01:56:48;;;;;;;;;45.50;37.75;;;;;24.24;51.90;99493.50;4987640;28;8878;-77
2023/08/20 01:59:18;;;;;;;;;38.25;34.50;;;;;24.23;51.89;99497.19;4987609;28;8877;-79
2023/08/20 02:01:47;;;;;;;;;41.00;36.00;;;;;24.21;52.00;99497.28;4970993;28;9688;-78
2023/08/20 02:04:17;;;;;;;;;44.25;36.25;;;;;24.18;52.51;99497.53;4956004;28;8892;-78
2023/08/20 02:06:46;;;;;;;;;43.50;37.00;;;;;24.13;52.78;99492.53;5047746;28;8838;-78
2023/08/20 02:09:15;;;;;;;;;42.50;37.25;;;;;23.96;52.94;99495.63;5066030;28;8851;-77
2023/08/20 02:11:44;;;;;;;;;45.50;38.00;;;;;23.89;53.30;99497.94;5092642;28;8863;-76
2023/08/20 02:14:13;;;;;;;;;42.75;36.00;;;;;23.95;53.11;99493.94;5063676;28;8897;-77
2023/08/20 02:16:42;;;;;;;;;46.00;38.00;;;;;23.98;53.10;99488.34;5034784;28;8858;-79
2023/08/20 02:19:11;;;;;;;;;40.00;35.25;;;;;23.93;53.26;99503.94;5046246;28;8850;-77
2023/08/20 02:21:42;;;;;;;;;47.00;39.75;;;;;23.20;55.98;99500.47;5046243;28;8842;-78
2023/08/20 02:24:12;;;;;;;;;48.00;41.25;;;;;22.67;58.17;99500.72;5046226;28;8866;-79
2023/08/20 02:26:40;;;;;;;;;45.25;39.00;;;;;22.38;59.38;99498.31;5013564;28;8885;-81
2023/08/20 02:29:09;;;;;;;;;45.75;38.25;;;;;22.58;58.59;99501.38;5048766;28;8862;-77
2023/08/20 02:31:38;;;;;;;;;46.50;39.00;;;;;22.78;57.79;99502.63;5033686;28;8977;-79
2023/08/20 02:34:07;;;;;;;;;43.50;37.50;;;;;22.94;57.28;99513.13;5050178;28;9100;-77
2023/08/20 02:36:36;;;;;;;;;45.00;38.25;;;;;23.11;56.27;99510.06;5049874;28;9011;-78
2023/08/20 02:39:07;;;;;;;;;44.75;38.75;;;;;23.17;56.48;99509.63;5050136;28;8872;-78
2023/08/20 02:41:38;;;;;;;;;47.75;40.50;;;;;23.14;56.39;99514.34;5033718;28;9084;-79
2023/08/20 02:44:07;;;;;;;;;47.50;40.50;;;;;22.88;57.57;99522.44;5018018;28;8846;-77
2023/08/20 02:46:38;;;;;;;;;44.25;37.75;;;;;22.64;58.35;99516.16;5051531;28;8862;-78
2023/08/20 02:49:07;;;;;;;;;49.25;41.75;;;;;22.09;60.34;99520.91;5114765;28;8847;-78
2023/08/20 02:51:36;;;;;;;;;47.75;40.50;;;;;21.31;63.40;99521.69;5095414;28;8856;-78
2023/08/20 02:54:06;;;;;;;;;49.50;41.25;;;;;20.84;65.93;99531.81;5113228;28;8823;-78
2023/08/20 02:56:35;;;;;;;;;47.50;40.00;;;;;20.70;67.39;99532.69;5060813;28;8894;-78
2023/08/20 02:59:05;;;;;;;;;47.25;40.00;;;;;20.90;66.88;99533.22;5095135;28;8860;-78
2023/08/20 03:01:33;;;;;;;;;44.00;38.50;;;;;21.15;65.21;99524.53;5095271;28;8836;-78
2023/08/20 03:04:03;;;;;;;;;43.25;37.75;;;;;21.50;63.87;99527.53;5095362;28;8874;-80
2023/08/20 03:06:31;;;;;;;;;47.25;39.75;;;;;21.71;63.29;99527.94;5113946;28;8848;-80
2023/08/20 03:09:00;;;;;;;;;47.25;39.50;;;;;21.25;64.84;99528.31;5092058;28;8903;-78
2023/08/20 03:11:31;;;;;;;;;47.25;40.00;;;;;21.57;63.50;99530.66;5098853;28;8869;-78
2023/08/20 03:14:00;;;;;;;;;45.00;39.00;;;;;21.78;62.60;99529.22;5074692;28;8857;-80
2023/08/20 03:16:28;;;;;;;;;45.00;39.00;;;;;21.98;61.88;99524.34;5071074;28;8931;-79
2023/08/20 03:18:57;;;;;;;;;46.25;39.00;;;;;22.14;61.16;99527.66;5037257;28;8842;-81
2023/08/20 03:21:48;;;;;;;;;47.50;38.50;;;;;22.30;60.82;99530.16;5069472;28;8836;-78
2023/08/20 03:24:18;;;;;;;;;44.25;38.00;;;;;22.41;60.49;99522.22;5069392;28;8855;-79
2023/08/20 03:26:48;;;;;;;;;41.25;36.50;;;;;22.50;60.05;99539.44;5052903;28;8940;-78
2023/08/20 03:29:17;;;;;;;;;42.75;36.75;;;;;22.57;60.26;99531.84;5053085;28;8855;-79
2023/08/20 03:31:46;;;;;;;;;46.25;39.00;;;;;22.34;61.06;99536.16;5053182;28;8897;-79
2023/08/20 03:34:15;;;;;;;;;47.75;40.25;;;;;22.36;60.73;99535.06;5069172;28;10114;-78
2023/08/20 03:36:44;;;;;;;;;49.00;40.25;;;;;22.39;60.59;99534.88;5069306;28;8860;-78
2023/08/20 03:39:13;;;;;;;;;41.50;36.50;;;;;22.31;61.07;99539.03;5009363;28;8975;-81
2023/08/20 03:41:42;;;;;;;;;48.50;40.75;;;;;22.37;60.74;99533.25;5009778;28;8995;-78
2023/08/20 03:44:12;;;;;;;;;46.00;39.75;;;;;22.47;60.34;99536.13;5011528;28;8888;-78
2023/08/20 03:46:41;;;;;;;;;49.00;40.75;;;;;22.15;61.69;99536.56;4993690;28;8836;-78
2023/08/20 03:49:10;;;;;;;;;46.00;38.75;;;;;22.11;61.87;99535.03;4962159;28;8840;-79
2023/08/20 03:51:39;;;;;;;;;45.00;38.50;;;;;21.89;62.56;99536.53;5009718;28;8886;-77
2023/08/20 03:54:10;;;;;;;;;48.25;39.25;;;;;22.03;62.12;99533.78;4982104;28;8829;-80
2023/08/20 03:56:39;;;;;;;;;45.75;38.75;;;;;22.16;61.59;99535.56;5012659;28;8887;-79
2023/08/20 03:59:08;;;;;;;;;43.25;37.50;;;;;22.29;61.11;99538.28;5012872;28;9559;-78
2023/08/20 04:01:38;;;;;;;;;40.00;35.25;;;;;22.38;61.05;99541.19;5012675;28;8987;-82
2023/08/20 04:04:07;;;;;;;;;45.25;38.50;;;;;22.47;60.65;99533.44;4987441;28;8856;-77
2023/08/20 04:06:36;;;;;;;;;44.00;38.50;;;;;22.51;60.22;99543.00;5020482;28;8868;-80
2023/08/20 04:09:06;;;;;;;;;47.75;41.00;;;;;22.53;60.23;99533.88;5034841;28;8860;-79
2023/08/20 04:11:34;;;;;;;;;44.50;37.75;;;;;22.65;59.72;99532.13;4971694;28;8837;-78
2023/08/20 04:14:04;;;;;;;;;45.50;39.00;;;;;22.71;59.34;99539.75;4922242;28;8964;-82
2023/08/20 04:16:33;;;;;;;;;49.50;40.00;;;;;22.75;59.31;99540.38;4990232;28;8833;-82
2023/08/20 04:19:03;;;;;;;;;44.75;38.00;;;;;22.81;59.02;99542.63;5012012;28;8903;-78
2023/08/20 04:21:32;;;;;;;;;50.50;41.00;;;;;22.83;59.30;99535.34;4979829;28;8867;-77
2023/08/20 04:24:01;;;;;;;;;47.00;40.00;;;;;22.88;58.95;99541.19;5012135;28;8863;-77
2023/08/20 04:26:30;;;;;;;;;47.50;40.50;;;;;22.92;58.78;99542.75;5012209;28;8875;-79
2023/08/20 04:29:00;;;;;;;;;48.25;40.75;;;;;22.98;58.61;99546.81;4992241;28;9538;-78
2023/08/20 04:31:29;;;;;;;;;43.50;38.00;;;;;23.03;58.39;99546.44;4992118;28;8955;-80
2023/08/20 04:34:08;;;;;;;;;46.25;39.00;;;;;23.10;58.18;99551.25;5008517;28;8870;-81
2023/08/20 04:36:56;;;;;;;;;45.25;39.00;;;;;23.14;58.44;99546.53;4969196;28;8849;-81
2023/08/20 04:39:26;;;;;;;;;45.50;38.75;;;;;23.21;57.90;99546.94;4937499;28;8903;-79
2023/08/20 04:41:57;;;;;;;;;45.75;39.50;;;;;23.24;57.92;99552.91;4939434;28;8889;-78
2023/08/20 04:44:27;;;;;;;;;42.25;37.50;;;;;23.29;57.58;99547.22;4926904;28;8853;-81
2023/08/20 04:46:57;;;;;;;;;48.75;41.50;;;;;23.36;57.17;99549.31;4989011;28;8878;-79
2023/08/20 04:49:29;;;;;;;;;46.25;40.00;;;;;23.46;57.00;99559.38;4952281;28;8863;-79
2023/08/20 04:52:00;;;;;;;;;50.00;41.00;;;;;23.34;57.13;99558.47;4992594;28;8913;-79
2023/08/20 04:54:31;;;;;;;;;49.25;40.50;;;;;22.87;59.16;99566.31;4992111;28;8844;-79
2023/08/20 04:57:00;;;;;;;;;49.25;40.25;;;;;22.03;60.96;99573.03;4991787;28;9289;-77
2023/08/20 04:59:29;;;;;;;;;48.50;40.75;;;;;21.81;60.92;99574.50;4992872;28;8944;-79
2023/08/20 05:02:04;;;;;;;;;48.50;39.75;;;;;21.73;61.61;99581.31;5026198;28;8880;-77
2023/08/20 05:04:50;;;;;;;;;47.00;40.50;;;;;21.88;61.33;99582.13;5016650;28;8879;-78
2023/08/20 05:07:20;;;;;;;;;49.00;41.50;;;;;21.89;61.11;99586.53;5003691;28;8853;-78
2023/08/20 05:09:51;;;;;;;;;49.25;40.75;;;;;21.74;61.71;99578.56;5058954;28;8862;-78
2023/08/20 05:12:20;;;;;;;;;48.00;41.25;;;;;21.98;60.97;99580.56;5068411;28;9019;-78
2023/08/20 05:14:49;;;;;;;;;52.50;43.00;;;;;22.16;60.34;99579.25;5066890;28;8875;-79
2023/08/20 05:17:18;;;;;;;;;49.50;42.00;;;;;22.33;60.15;99578.13;5050307;28;8848;-78
2023/08/20 05:19:47;;;;;;;;;49.50;42.25;;;;;22.37;60.25;99579.66;5050834;28;10239;-79
2023/08/20 05:22:17;;;;;;;;;48.00;40.25;;;;;22.54;59.61;99583.84;5050532;28;8880;-79
2023/08/20 05:24:46;;;;;;;;;50.00;42.75;;;;;22.68;59.10;99576.63;5047086;28;8937;-77
2023/08/20 05:27:17;;;;;;;;;50.25;41.75;;;;;22.77;59.09;99576.84;5013894;28;8866;-79
2023/08/20 05:29:49;;;;;;;;;50.00;42.50;;;;;22.99;58.27;99577.97;5030702;28;8857;-78
2023/08/20 05:32:19;;;;;;;;;44.75;38.50;;;;;23.16;58.03;99571.41;5032164;28;8866;-78
2023/08/20 05:34:49;;;;;;;;;47.75;40.25;;;;;23.37;57.67;99564.47;5030812;28;8948;-79
2023/08/20 05:37:19;;;;;;;;;49.25;41.50;;;;;23.52;56.81;99566.97;5047173;28;9693;-76
2023/08/20 05:39:48;;;;;;;;;52.75;43.25;;;;;23.66;56.91;99564.13;5035705;28;8857;-79
2023/08/20 05:42:18;;;;;;;;;49.25;40.75;;;;;23.81;56.32;99569.28;5033838;28;8860;-79
2023/08/20 05:44:54;;;;;;;;;49.25;41.25;;;;;23.93;56.05;99574.59;5051152;28;8970;-79
2023/08/20 05:47:27;;;;;;;;;49.50;42.25;;;;;23.91;56.14;99578.38;5039986;28;8882;-78
2023/08/20 05:49:56;;;;;;;;;46.00;38.50;;;;;24.03;55.80;99566.69;5088343;28;8843;-79
2023/08/20 05:52:26;;;;;;;;;49.25;40.25;;;;;24.10;55.12;99567.91;5091162;28;8881;-77
2023/08/20 05:54:55;;;;;;;;;51.00;41.00;;;;;24.13;55.10;99567.72;5095288;28;8832;-77
2023/08/20 05:57:24;;;;;;;;;46.50;39.25;;;;;24.12;55.13;99570.50;5094166;28;8858;-77
2023/08/20 05:59:53;;;;;;;;;47.50;40.25;;;;;24.21;55.30;99574.34;5088387;28;8937;-78
2023/08/20 06:02:22;;;;;;;;;46.00;39.25;;;;;24.40;54.83;99581.81;5088048;28;9659;-79
2023/08/20 06:04:51;;;;;;;;;48.75;41.50;;;;;23.90;55.96;99590.06;5084753;28;8835;-78
2023/08/20 06:07:20;;;;;;;;;54.50;44.00;;;;;22.96;59.56;99587.13;5089084;28;8867;-78
2023/08/20 06:09:50;;;;;;;;;52.00;44.00;;;;;22.41;61.41;99593.66;5089258;28;9015;-79
2023/08/20 06:12:19;;;;;;;;;50.25;43.25;;;;;22.42;61.86;99595.38;5053418;28;8962;-77
2023/08/20 06:14:48;;;;;;;;;47.00;40.00;;;;;22.38;62.07;99601.94;5053407;28;8851;-78
2023/08/20 06:17:17;;;;;;;;;47.00;40.00;;;;;22.84;60.43;99598.69;5101909;28;9597;-77
2023/08/20 06:19:46;;;;;;;;;51.00;43.00;;;;;23.25;59.23;99591.31;5090987;28;8831;-82
2023/08/20 06:22:15;;;;;;;;;44.00;38.25;;;;;23.72;58.28;99603.06;5091293;28;8863;-79
2023/08/20 06:24:44;;;;;;;;;46.25;38.75;;;;;24.08;56.21;99599.41;5109343;28;8835;-79
2023/08/20 06:27:14;;;;;;;;;44.75;38.25;;;;;24.45;55.06;99606.47;5093974;28;8893;-79
2023/08/20 06:29:43;;;;;;;;;48.50;40.50;;;;;24.69;53.33;99603.69;5088904;28;8869;-82
2023/08/20 06:32:12;;;;;;;;;46.00;38.75;;;;;25.03;52.63;99606.41;5089340;28;9001;-78
2023/08/20 06:34:40;;;;;;;;;44.25;36.75;;;;;25.23;51.98;99605.63;5090441;28;8861;-78
2023/08/20 06:37:09;;;;;;;;;46.50;38.00;;;;;25.52;51.39;99605.09;5089859;28;8869;-78
2023/08/20 06:39:38;;;;;;;;;46.25;38.25;;;;;25.79;51.16;99598.38;5088784;28;8904;-78
2023/08/20 06:42:07;;;;;;;;;46.50;39.25;;;;;25.95;50.09;99600.69;5052934;28;8968;-77
2023/08/20 06:44:39;;;;;;;;;46.75;39.50;;;;;26.17;49.59;99602.38;5071445;28;8842;-78
2023/08/20 06:47:08;;;;;;;;;46.75;39.25;;;;;26.38;48.79;99595.16;5070967;28;8884;-78
2023/08/20 06:49:57;;;;;;;;;40.25;35.25;;;;;26.52;46.18;99603.91;5052838;28;8978;-78
2023/08/20 06:52:25;;;;;;;;;36.25;31.75;;;;;26.51;43.92;99607.59;5049890;28;8987;-77
2023/08/20 06:54:54;;;;;;;;;37.50;33.00;;;;;26.65;44.35;99602.69;5049621;28;8943;-77
2023/08/20 06:57:23;;;;;;;;;31.50;30.00;;;;;26.77;41.77;99598.06;5046048;28;8955;-80
2023/08/20 06:59:53;;;;;;;;;31.50;30.00;;;;;26.91;41.33;99607.66;5045740;28;8882;-78
2023/08/20 07:02:22;;;;;;;;;31.25;30.50;;;;;27.03;40.06;99606.56;5045674;28;8874;-77
2023/08/20 07:04:51;;;;;;;;;28.25;27.75;;;;;27.12;38.66;99607.59;5046029;28;8927;-78
2023/08/20 07:07:20;;;;;;;;;29.75;29.25;;;;;27.23;38.03;99612.00;5045709;28;8868;-78
2023/08/20 07:09:49;;;;;;;;;28.00;27.40;;;;;27.35;37.68;99615.47;5045318;28;8865;-78
2023/08/20 07:12:17;;;;;;;;;30.40;28.80;;;;;27.49;37.32;99619.59;5051149;28;8969;-77
2023/08/20 07:14:46;;;;;;;;;26.75;26.50;;;;;27.67;37.88;99617.09;5065078;28;8863;-81
2023/08/20 07:17:17;;;;;;;;;26.00;25.50;;;;;27.82;37.49;99623.78;5052683;28;8872;-78
2023/08/20 07:19:46;;;;;;;;;24.40;24.40;;;;;27.91;36.32;99622.94;5069674;28;8871;-77
2023/08/20 07:22:14;;;;;;;;;28.00;25.80;;;;;28.07;36.26;99626.91;5092985;28;8828;-77
2023/08/20 07:24:43;;;;;;;;;22.60;21.80;;;;;28.12;35.91;99622.81;5098332;28;9624;-77
2023/08/20 07:27:12;;;;;;;;;23.60;20.80;;;;;28.23;35.06;99621.78;5091870;28;8892;-78
2023/08/20 07:29:42;;;;;;;;;25.00;25.00;;;;;28.32;34.25;99623.63;5091938;28;8853;-78
2023/08/20 07:32:11;;;;;;;;;21.80;21.80;;;;;28.37;33.91;99617.81;5055775;28;9024;-77
2023/08/20 07:34:42;;;;;;;;;25.25;25.25;;;;;28.44;33.91;99609.94;5091894;28;8860;-77
2023/08/20 07:37:10;;;;;;;;;22.60;21.00;;;;;28.47;33.79;99605.09;5091697;28;8865;-78
2023/08/20 07:39:40;;;;;;;;;23.75;23.75;;;;;28.64;33.83;99608.91;5091864;28;8866;-80
2023/08/20 07:42:08;;;;;;;;;21.75;21.75;;;;;28.76;34.26;99610.44;5035980;28;8902;-76
2023/08/20 07:44:37;;;;;;;;;23.00;23.00;;;;;28.94;34.40;99615.91;5035413;28;9625;-76
2023/08/20 07:47:06;;;;;;;;;26.25;25.00;;;;;29.05;34.75;99620.28;5032279;28;8906;-78
2023/08/20 07:49:35;;;;;;;;;30.00;29.00;;;;;28.70;35.16;99619.13;4980118;28;9633;-79
2023/08/20 07:52:06;;;;;;;;;28.25;28.25;;;;;28.79;35.48;99620.94;5028524;28;8844;-77
2023/08/20 07:54:35;;;;;;;;;25.20;24.20;;;;;28.78;33.95;99619.25;4980044;28;8958;-80
2023/08/20 07:57:03;;;;;;;;;27.50;27.50;;;;;29.01;34.19;99613.47;5028392;28;8848;-77
2023/08/20 07:59:32;;;;;;;;;28.20;25.20;;;;;29.25;33.35;99614.78;5028549;28;9670;-78
2023/08/20 08:02:02;;;;;;;;;25.20;24.20;;;;;29.34;32.91;99616.59;5027036;28;8846;-77
2023/08/20 08:04:31;;;;;;;;;24.20;23.00;;;;;29.40;32.54;99617.81;5048322;28;8884;-78
2023/08/20 08:07:00;;;;;;;;;25.80;24.00;;;;;29.46;32.86;99626.22;5031369;28;8845;-79
2023/08/20 08:09:32;;;;;;;;;20.80;20.80;;;;;29.47;32.11;99621.63;5048313;28;8846;-78
2023/08/20 08:12:01;;;;;;;;;27.20;25.60;;;;;29.60;32.16;99632.94;5028674;28;8850;-78
2023/08/20 08:14:30;;;;;;;;;28.25;26.75;;;;;29.64;32.49;99630.78;5088898;28;8858;-78
2023/08/20 08:16:59;;;;;;;;;23.20;22.00;;;;;29.65;31.82;99636.06;5090808;28;8830;-77
2023/08/20 08:19:28;;;;;;;;;23.60;22.40;;;;;29.73;32.33;99638.88;5090757;28;8864;-78
2023/08/20 08:21:57;;;;;;;;;23.80;23.80;;;;;29.71;32.44;99632.75;5091120;28;8849;-80
2023/08/20 08:24:26;;;;;;;;;23.60;23.60;;;;;29.80;31.95;99633.66;5090141;28;8880;-79
2023/08/20 08:26:56;;;;;;;;;25.80;24.20;;;;;29.75;31.88;99636.84;5090252;28;8856;-78
2023/08/20 08:29:25;;;;;;;;;22.00;21.60;;;;;29.75;31.99;99627.88;5072714;28;8845;-79
2023/08/20 08:31:54;;;;;;;;;24.00;22.60;;;;;29.86;32.22;99627.66;5039026;28;8841;-78
2023/08/20 08:34:23;;;;;;;;;21.00;21.00;;;;;29.82;32.46;99636.22;5090594;28;8850;-78
2023/08/20 08:36:51;;;;;;;;;24.80;24.20;;;;;29.93;32.06;99634.13;5091171;28;8946;-80
2023/08/20 08:39:20;;;;;;;;;25.00;24.50;;;;;30.05;32.59;99628.47;5096069;28;8822;-77
2023/08/20 08:41:51;;;;;;;;;23.40;23.20;;;;;30.20;32.13;99636.91;5096594;28;8854;-77
2023/08/20 08:44:22;;;;;;;;;24.20;23.00;;;;;30.23;31.86;99632.03;5090847;28;9676;-78
2023/08/20 08:46:52;;;;;;;;;21.80;21.80;;;;;30.27;31.42;99627.16;5090575;28;8854;-79
2023/08/20 08:49:22;;;;;;;;;18.00;18.00;;;;;30.41;32.02;99632.00;5090189;28;8951;-79
2023/08/20 08:51:52;;;;;;;;;26.50;25.50;;;;;30.36;31.31;99628.91;5090459;28;8846;-77
2023/08/20 08:54:22;;;;;;;;;22.75;22.75;;;;;30.37;31.67;99625.22;5090739;28;8888;-78
2023/08/20 08:56:51;;;;;;;;;20.40;20.00;;;;;30.59;31.63;99631.94;5089972;28;8952;-78
2023/08/20 08:59:20;;;;;;;;;23.80;22.80;;;;;30.78;31.63;99627.34;5090249;28;8834;-76
2023/08/20 09:01:50;;;;;;;;;24.50;24.50;;;;;30.94;31.58;99632.84;5090368;28;8857;-78
2023/08/20 09:04:19;;;;;;;;;22.50;22.50;;;;;31.09;31.24;99631.22;5090051;28;8833;-79
2023/08/20 09:06:49;;;;;;;;;28.75;28.25;;;;;31.01;31.80;99641.19;5090017;28;8830;-78
2023/08/20 09:09:19;;;;;;;;;27.25;25.00;;;;;31.14;31.48;99640.72;5090692;28;8926;-78
2023/08/20 09:11:49;;;;;;;;;29.25;27.00;;;;;31.25;31.55;99632.31;5090128;28;8896;-77
2023/08/20 09:14:28;;;;;;;;;23.80;23.00;;;;;31.30;29.73;99641.66;5046887;28;8904;-77
2023/08/20 09:16:59;;;;;;;;;22.60;22.60;;;;;31.23;30.06;99645.22;5047194;28;9811;-78
2023/08/20 09:19:30;;;;;;;;;23.25;22.50;;;;;31.25;30.09;99633.16;5047199;28;8857;-77
2023/08/20 09:22:02;;;;;;;;;22.80;21.80;;;;;31.36;29.79;99642.03;5046830;28;8923;-79
2023/08/20 09:24:35;;;;;;;;;22.00;22.00;;;;;31.39;30.25;99641.69;5030601;28;8860;-79
2023/08/20 09:27:05;;;;;;;;;25.75;24.75;;;;;31.44;30.07;99644.75;5013343;28;8971;-79
2023/08/20 09:29:44;;;;;;;;;24.75;24.75;;;;;31.47;30.32;99637.13;5046594;28;8860;-77
2023/08/20 09:32:17;;;;;;;;;32.25;29.75;;;;;30.91;33.33;99641.31;5063564;28;9020;-77
2023/08/20 09:34:46;;;;;;;;;35.50;32.50;;;;;29.99;34.29;99639.94;5068997;28;8858;-76
2023/08/20 09:37:16;;;;;;;;;34.00;31.25;;;;;28.87;37.62;99651.84;5069778;28;8912;-77
2023/08/20 09:39:45;;;;;;;;;37.50;33.50;;;;;29.43;37.21;99642.75;5067910;28;8830;-80
2023/08/20 09:42:15;;;;;;;;;37.00;33.25;;;;;29.68;37.46;99641.19;5050255;28;8870;-77
2023/08/20 09:44:45;;;;;;;;;40.50;35.75;;;;;29.77;37.44;99641.28;5017269;28;8843;-78
2023/08/20 09:47:21;;;;;;;;;37.50;33.50;;;;;29.90;37.59;99644.44;5066557;28;8888;-78
2023/08/20 09:49:51;;;;;;;;;40.50;35.00;;;;;29.52;37.54;99641.00;5066584;28;8870;-78
2023/08/20 09:52:29;;;;;;;;;40.50;34.75;;;;;29.54;37.17;99630.84;5063651;28;8834;-76
2023/08/20 09:55:02;;;;;;;;;47.25;40.25;;;;;29.76;36.81;99632.28;5020549;28;8969;-80
2023/08/20 09:57:36;;;;;;;;;39.25;35.00;;;;;29.69;36.08;99637.47;5089276;28;8842;-80
2023/08/20 10:00:09;;;;;;;;;36.75;33.50;;;;;29.46;37.20;99631.63;5089091;28;8950;-78
2023/08/20 10:02:43;;;;;;;;;34.50;31.50;;;;;29.85;36.20;99631.34;5089381;28;8829;-78
2023/08/20 10:05:15;;;;;;;;;35.25;32.25;;;;;29.85;35.57;99631.34;5089090;28;8877;-78
2023/08/20 10:07:44;;;;;;;;;37.00;32.75;;;;;30.07;34.99;99624.59;5088961;28;8842;-77
2023/08/20 10:10:13;;;;;;;;;38.25;32.50;;;;;30.13;34.35;99629.38;5088582;28;8857;-78
2023/08/20 10:12:43;;;;;;;;;36.50;33.50;;;;;30.32;34.05;99630.25;5089153;28;8845;-77
2023/08/20 10:15:14;;;;;;;;;38.50;34.00;;;;;30.37;35.50;99633.34;5053806;28;9690;-78
2023/08/20 10:17:46;;;;;;;;;38.00;34.25;;;;;30.45;34.82;99633.38;5089627;28;8862;-77
2023/08/20 10:20:16;;;;;;;;;40.25;34.50;;;;;30.16;33.86;99636.34;5071080;28;8853;-77
2023/08/20 10:22:46;;;;;;;;;38.50;34.00;;;;;29.83;34.93;99637.94;5071569;28;8854;-80
2023/08/20 10:25:24;;;;;;;;;37.50;34.00;;;;;28.85;36.77;99645.72;5089072;28;8984;-76
2023/08/20 10:27:54;;;;;;;;;37.25;34.00;;;;;29.42;36.59;99635.63;5090695;28;8841;-79
2023/08/20 10:30:26;;;;;;;;;32.75;31.00;;;;;29.88;35.41;99633.75;5076644;28;8893;-78
2023/08/20 10:32:58;;;;;;;;;34.50;31.50;;;;;30.07;35.03;99632.75;5093860;28;8880;-77
2023/08/20 10:35:47;;;;;;;;;34.50;32.00;;;;;30.36;34.97;99628.91;5089439;28;8991;-78
2023/08/20 10:38:18;;;;;;;;;31.25;29.25;;;;;30.56;33.77;99624.13;5090221;28;8845;-78
2023/08/20 10:40:58;;;;;;;;;37.00;33.25;;;;;30.79;33.96;99637.19;5038005;28;8911;-79
2023/08/20 10:43:28;;;;;;;;;29.50;29.00;;;;;31.01;32.71;99635.75;5089330;28;8853;-77
2023/08/20 10:46:08;;;;;;;;;30.00;28.25;;;;;31.17;31.79;99635.84;5080426;28;8867;-77
2023/08/20 10:48:41;;;;;;;;;18.75;18.75;;;;;31.22;31.03;99641.66;5089290;28;8936;-78
2023/08/20 10:51:14;;;;;;;;;30.25;29.50;;;;;31.34;31.67;99636.75;5091657;28;8932;-78
2023/08/20 10:53:49;;;;;;;;;35.25;31.00;;;;;31.45;31.82;99635.59;5092900;28;8840;-77
2023/08/20 10:56:18;;;;;;;;;32.75;30.25;;;;;31.57;32.01;99634.25;5093554;28;8871;-78
2023/08/20 10:58:48;;;;;;;;;33.75;30.75;;;;;31.68;31.82;99638.56;5093070;28;9001;-79
2023/08/20 11:01:22;;;;;;;;;29.50;28.50;;;;;31.47;30.92;99636.28;5092571;28;8907;-78
2023/08/20 11:03:53;;;;;;;;;31.00;29.00;;;;;31.52;30.56;99638.50;5092666;28;8864;-77
2023/08/20 11:06:22;;;;;;;;;29.75;27.50;;;;;31.68;30.94;99635.84;5092772;28;8866;-80
2023/08/20 11:08:52;;;;;;;;;23.25;22.25;;;;;31.81;29.64;99632.66;5074254;28;8830;-78
2023/08/20 11:11:21;;;;;;;;;25.00;25.00;;;;;31.92;29.24;99640.47;5058526;28;8830;-77
2023/08/20 11:13:50;;;;;;;;;23.75;23.75;;;;;32.07;29.17;99637.91;5047427;28;8862;-76
2023/08/20 11:16:20;;;;;;;;;27.25;26.25;;;;;32.28;28.97;99642.88;5049111;28;8965;-78
2023/08/20 11:18:49;;;;;;;;;24.75;24.00;;;;;32.42;28.70;99636.72;5049682;28;8843;-77
2023/08/20 11:21:20;;;;;;;;;26.75;26.25;;;;;32.53;27.89;99640.97;5000343;28;8882;-78
2023/08/20 11:23:50;;;;;;;;;25.25;25.00;;;;;32.72;28.15;99638.91;5052354;28;8834;-78
2023/08/20 11:26:19;;;;;;;;;25.25;24.25;;;;;32.91;27.67;99635.78;5054729;28;8884;-77
2023/08/20 11:28:48;;;;;;;;;25.75;24.75;;;;;32.99;28.25;99634.91;5021068;28;8888;-77
2023/08/20 11:31:16;;;;;;;;;23.25;23.00;;;;;33.15;27.64;99628.56;5051515;28;8942;-79
2023/08/20 11:33:45;;;;;;;;;24.00;21.25;;;;;33.16;26.95;99630.25;5049391;28;8866;-77
2023/08/20 11:36:16;;;;;;;;;27.00;26.75;;;;;33.12;27.22;99624.31;5048960;28;8858;-77
2023/08/20 11:38:52;;;;;;;;;23.75;22.75;;;;;33.38;26.69;99624.00;5048782;28;8838;-79
2023/08/20 11:41:21;;;;;;;;;28.00;25.50;;;;;33.43;26.21;99628.91;5048810;28;8858;-79